sensor_id;sensor_type;location;lat;lon;timestamp;P1;durP1;ratioP1;P2;durP2;ratioP2
5149;SDS011;2593;52.466;13.436;2022-09-09T00:09:55;11.90;;;10.70;;
5149;SDS011;2593;52.466;13.436;2022-09-09T00:15:31;21.10;;;10.53;;
5149;SDS011;2593;52.466;13.436;2022-09-09T00:18:07;12.43;;;8.60;;
5149;SDS011;2593;52.466;13.436;2022-09-09T00:20:54;13.40;;;9.63;;
5149;SDS011;2593;52.466;13.436;2022-09-09T00:23:29;11.93;;;10.70;;
5149;SDS011;2593;52.466;13.436;2022-09-09T00:28:46;10.43;;;9.37;;
5149;SDS011;2593;52.466;13.436;2022-09-09T00:31:16;12.80;;;10.43;;
5149;SDS011;2593;52.466;13.436;2022-09-09T00:33:47;10.07;;;8.90;;
5149;SDS011;2593;52.466;13.436;2022-09-09T00:36:15;16.00;;;9.90;;
5149;SDS011;2593;52.466;13.436;2022-09-09T00:39:02;14.83;;;9.10;;
5149;SDS011;2593;52.466;13.436;2022-09-09T00:44:08;12.67;;;9.23;;
5149;SDS011;2593;52.466;13.436;2022-09-09T00:57:32;9.77;;;8.77;;
5149;SDS011;2593;52.466;13.436;2022-09-09T01:10:56;10.43;;;8.87;;
5149;SDS011;2593;52.466;13.436;2022-09-09T01:13:25;16.30;;;8.10;;
5149;SDS011;2593;52.466;13.436;2022-09-09T01:15:55;11.20;;;9.10;;
5149;SDS011;2593;52.466;13.436;2022-09-09T01:18:26;9.07;;;7.60;;
5149;SDS011;2593;52.466;13.436;2022-09-09T01:21:39;19.10;;;9.40;;
5149;SDS011;2593;52.466;13.436;2022-09-09T01:24:13;11.43;;;9.13;;
5149;SDS011;2593;52.466;13.436;2022-09-09T01:26:41;14.13;;;8.73;;
5149;SDS011;2593;52.466;13.436;2022-09-09T01:29:09;12.90;;;8.77;;
5149;SDS011;2593;52.466;13.436;2022-09-09T01:31:52;13.40;;;8.03;;
5149;SDS011;2593;52.466;13.436;2022-09-09T01:34:23;11.33;;;8.50;;
5149;SDS011;2593;52.466;13.436;2022-09-09T01:39:29;10.37;;;8.10;;
5149;SDS011;2593;52.466;13.436;2022-09-09T01:41:55;9.10;;;8.20;;
5149;SDS011;2593;52.466;13.436;2022-09-09T01:44:21;8.80;;;7.90;;
5149;SDS011;2593;52.466;13.436;2022-09-09T01:46:48;20.60;;;10.07;;
5149;SDS011;2593;52.466;13.436;2022-09-09T01:49:13;13.10;;;9.10;;
5149;SDS011;2593;52.466;13.436;2022-09-09T01:51:40;10.47;;;9.37;;
5149;SDS011;2593;52.466;13.436;2022-09-09T01:54:08;10.07;;;8.47;;
5149;SDS011;2593;52.466;13.436;2022-09-09T02:00:30;10.77;;;8.83;;
5149;SDS011;2593;52.466;13.436;2022-09-09T02:02:42;13.40;;;8.17;;
5149;SDS011;2593;52.466;13.436;2022-09-09T02:05:27;9.87;;;7.53;;
5149;SDS011;2593;52.466;13.436;2022-09-09T02:08:13;11.77;;;8.60;;
5149;SDS011;2593;52.466;13.436;2022-09-09T02:13:17;10.33;;;8.73;;
5149;SDS011;2593;52.466;13.436;2022-09-09T02:16:32;11.40;;;8.80;;
5149;SDS011;2593;52.466;13.436;2022-09-09T02:21:15;14.00;;;9.80;;
5149;SDS011;2593;52.466;13.436;2022-09-09T02:23:42;9.43;;;8.43;;
5149;SDS011;2593;52.466;13.436;2022-09-09T02:26:10;10.50;;;8.70;;
5149;SDS011;2593;52.466;13.436;2022-09-09T02:28:38;9.83;;;8.70;;
5149;SDS011;2593;52.466;13.436;2022-09-09T02:31:05;13.00;;;8.00;;
5149;SDS011;2593;52.466;13.436;2022-09-09T02:33:34;12.83;;;8.83;;
5149;SDS011;2593;52.466;13.436;2022-09-09T02:36:03;14.93;;;7.67;;
5149;SDS011;2593;52.466;13.436;2022-09-09T02:38:33;11.13;;;8.53;;
5149;SDS011;2593;52.466;13.436;2022-09-09T02:41:01;12.00;;;8.57;;
5149;SDS011;2593;52.466;13.436;2022-09-09T02:43:30;10.27;;;8.73;;
5149;SDS011;2593;52.466;13.436;2022-09-09T02:46:07;13.07;;;8.77;;
5149;SDS011;2593;52.466;13.436;2022-09-09T02:48:51;9.80;;;8.33;;
5149;SDS011;2593;52.466;13.436;2022-09-09T02:51:42;9.87;;;8.07;;
5149;SDS011;2593;52.466;13.436;2022-09-09T02:54:20;8.73;;;6.93;;
5149;SDS011;2593;52.466;13.436;2022-09-09T02:56:54;10.53;;;7.37;;
5149;SDS011;2593;52.466;13.436;2022-09-09T02:59:21;10.00;;;7.23;;
5149;SDS011;2593;52.466;13.436;2022-09-09T03:01:47;10.07;;;7.90;;
5149;SDS011;2593;52.466;13.436;2022-09-09T03:04:13;7.37;;;6.63;;
5149;SDS011;2593;52.466;13.436;2022-09-09T03:06:38;11.60;;;9.23;;
5149;SDS011;2593;52.466;13.436;2022-09-09T03:09:04;8.00;;;7.20;;
5149;SDS011;2593;52.466;13.436;2022-09-09T03:11:30;12.73;;;7.63;;
5149;SDS011;2593;52.466;13.436;2022-09-09T03:13:56;15.83;;;7.33;;
5149;SDS011;2593;52.466;13.436;2022-09-09T03:16:22;8.57;;;6.97;;
5149;SDS011;2593;52.466;13.436;2022-09-09T03:18:48;9.73;;;7.77;;
5149;SDS011;2593;52.466;13.436;2022-09-09T03:21:14;8.03;;;7.23;;
5149;SDS011;2593;52.466;13.436;2022-09-09T03:23:39;12.70;;;7.83;;
5149;SDS011;2593;52.466;13.436;2022-09-09T03:26:05;8.63;;;7.67;;
5149;SDS011;2593;52.466;13.436;2022-09-09T03:28:31;8.87;;;7.90;;
5149;SDS011;2593;52.466;13.436;2022-09-09T03:31:00;8.97;;;7.70;;
5149;SDS011;2593;52.466;13.436;2022-09-09T03:33:27;9.37;;;7.93;;
5149;SDS011;2593;52.466;13.436;2022-09-09T03:35:53;13.33;;;7.80;;
5149;SDS011;2593;52.466;13.436;2022-09-09T03:38:21;8.87;;;7.07;;
5149;SDS011;2593;52.466;13.436;2022-09-09T03:40:53;10.90;;;7.53;;
5149;SDS011;2593;52.466;13.436;2022-09-09T03:43:24;8.77;;;7.13;;
5149;SDS011;2593;52.466;13.436;2022-09-09T03:45:50;8.10;;;7.30;;
5149;SDS011;2593;52.466;13.436;2022-09-09T03:48:17;9.67;;;7.70;;
5149;SDS011;2593;52.466;13.436;2022-09-09T03:50:47;9.80;;;7.43;;
5149;SDS011;2593;52.466;13.436;2022-09-09T03:53:14;9.93;;;7.63;;
5149;SDS011;2593;52.466;13.436;2022-09-09T03:55:44;8.07;;;6.73;;
5149;SDS011;2593;52.466;13.436;2022-09-09T03:58:11;13.73;;;7.70;;
5149;SDS011;2593;52.466;13.436;2022-09-09T04:00:38;9.93;;;6.80;;
5149;SDS011;2593;52.466;13.436;2022-09-09T04:03:05;7.33;;;6.43;;
5149;SDS011;2593;52.466;13.436;2022-09-09T04:05:30;9.73;;;7.30;;
5149;SDS011;2593;52.466;13.436;2022-09-09T04:07:58;8.27;;;6.40;;
5149;SDS011;2593;52.466;13.436;2022-09-09T04:10:24;8.87;;;6.60;;
5149;SDS011;2593;52.466;13.436;2022-09-09T04:12:49;6.60;;;6.00;;
5149;SDS011;2593;52.466;13.436;2022-09-09T04:15:15;7.17;;;6.47;;
5149;SDS011;2593;52.466;13.436;2022-09-09T04:17:40;9.97;;;6.07;;
5149;SDS011;2593;52.466;13.436;2022-09-09T04:20:06;6.60;;;6.00;;
5149;SDS011;2593;52.466;13.436;2022-09-09T04:22:36;8.67;;;6.37;;
5149;SDS011;2593;52.466;13.436;2022-09-09T04:25:03;6.70;;;6.00;;
5149;SDS011;2593;52.466;13.436;2022-09-09T04:27:30;8.37;;;7.50;;
5149;SDS011;2593;52.466;13.436;2022-09-09T04:29:56;7.57;;;6.87;;
5149;SDS011;2593;52.466;13.436;2022-09-09T04:32:22;9.60;;;6.53;;
5149;SDS011;2593;52.466;13.436;2022-09-09T04:34:48;6.87;;;4.90;;
5149;SDS011;2593;52.466;13.436;2022-09-09T04:37:14;7.40;;;6.20;;
5149;SDS011;2593;52.466;13.436;2022-09-09T04:39:39;8.50;;;6.53;;
5149;SDS011;2593;52.466;13.436;2022-09-09T04:42:05;10.23;;;6.50;;
5149;SDS011;2593;52.466;13.436;2022-09-09T04:44:30;8.80;;;5.93;;
5149;SDS011;2593;52.466;13.436;2022-09-09T04:46:56;7.40;;;6.67;;
5149;SDS011;2593;52.466;13.436;2022-09-09T04:49:22;8.07;;;6.73;;
5149;SDS011;2593;52.466;13.436;2022-09-09T04:51:51;12.30;;;5.60;;
5149;SDS011;2593;52.466;13.436;2022-09-09T04:54:17;6.57;;;5.90;;
5149;SDS011;2593;52.466;13.436;2022-09-09T04:56:42;5.90;;;5.40;;
5149;SDS011;2593;52.466;13.436;2022-09-09T04:59:08;6.87;;;6.17;;
5149;SDS011;2593;52.466;13.436;2022-09-09T05:01:34;7.37;;;6.60;;
5149;SDS011;2593;52.466;13.436;2022-09-09T05:04:01;10.57;;;6.90;;
5149;SDS011;2593;52.466;13.436;2022-09-09T05:06:27;7.87;;;6.50;;
5149;SDS011;2593;52.466;13.436;2022-09-09T05:08:54;8.40;;;6.30;;
5149;SDS011;2593;52.466;13.436;2022-09-09T05:13:48;10.87;;;6.07;;
5149;SDS011;2593;52.466;13.436;2022-09-09T05:16:15;8.70;;;6.83;;
5149;SDS011;2593;52.466;13.436;2022-09-09T05:18:41;10.10;;;5.70;;
5149;SDS011;2593;52.466;13.436;2022-09-09T05:21:08;8.57;;;6.40;;
5149;SDS011;2593;52.466;13.436;2022-09-09T05:23:34;6.30;;;5.70;;
5149;SDS011;2593;52.466;13.436;2022-09-09T05:26:00;8.00;;;6.50;;
5149;SDS011;2593;52.466;13.436;2022-09-09T05:28:26;8.13;;;5.27;;
5149;SDS011;2593;52.466;13.436;2022-09-09T05:30:59;8.20;;;4.87;;
5149;SDS011;2593;52.466;13.436;2022-09-09T05:33:33;8.20;;;6.10;;
5149;SDS011;2593;52.466;13.436;2022-09-09T05:36:01;10.60;;;5.90;;
5149;SDS011;2593;52.466;13.436;2022-09-09T05:38:30;18.47;;;5.60;;
5149;SDS011;2593;52.466;13.436;2022-09-09T05:40:57;7.90;;;5.30;;
5149;SDS011;2593;52.466;13.436;2022-09-09T05:43:23;14.83;;;6.00;;
5149;SDS011;2593;52.466;13.436;2022-09-09T05:45:58;5.60;;;4.57;;
5149;SDS011;2593;52.466;13.436;2022-09-09T05:48:31;8.03;;;5.53;;
5149;SDS011;2593;52.466;13.436;2022-09-09T05:50:58;5.80;;;5.20;;
5149;SDS011;2593;52.466;13.436;2022-09-09T05:53:24;7.10;;;5.53;;
5149;SDS011;2593;52.466;13.436;2022-09-09T05:55:50;5.40;;;4.80;;
5149;SDS011;2593;52.466;13.436;2022-09-09T05:58:23;8.20;;;5.63;;
5149;SDS011;2593;52.466;13.436;2022-09-09T06:00:49;10.83;;;4.33;;
5149;SDS011;2593;52.466;13.436;2022-09-09T06:03:15;5.33;;;4.80;;
5149;SDS011;2593;52.466;13.436;2022-09-09T06:05:41;9.13;;;5.13;;
5149;SDS011;2593;52.466;13.436;2022-09-09T06:08:07;4.47;;;4.00;;
5149;SDS011;2593;52.466;13.436;2022-09-09T06:10:33;6.50;;;4.37;;
5149;SDS011;2593;52.466;13.436;2022-09-09T06:12:59;5.50;;;4.27;;
5149;SDS011;2593;52.466;13.436;2022-09-09T06:15:24;5.07;;;4.57;;
5149;SDS011;2593;52.466;13.436;2022-09-09T06:17:56;15.27;;;5.10;;
5149;SDS011;2593;52.466;13.436;2022-09-09T06:20:21;3.73;;;3.43;;
5149;SDS011;2593;52.466;13.436;2022-09-09T06:22:47;5.43;;;3.53;;
5149;SDS011;2593;52.466;13.436;2022-09-09T06:25:13;9.60;;;4.50;;
5149;SDS011;2593;52.466;13.436;2022-09-09T06:27:39;5.83;;;4.00;;
5149;SDS011;2593;52.466;13.436;2022-09-09T06:30:07;7.10;;;4.47;;
5149;SDS011;2593;52.466;13.436;2022-09-09T06:32:33;11.13;;;4.13;;
5149;SDS011;2593;52.466;13.436;2022-09-09T06:35:00;3.43;;;3.13;;
5149;SDS011;2593;52.466;13.436;2022-09-09T06:37:26;5.93;;;3.30;;
5149;SDS011;2593;52.466;13.436;2022-09-09T06:39:52;6.60;;;3.67;;
5149;SDS011;2593;52.466;13.436;2022-09-09T06:42:19;11.03;;;4.03;;
5149;SDS011;2593;52.466;13.436;2022-09-09T06:44:46;3.70;;;3.40;;
5149;SDS011;2593;52.466;13.436;2022-09-09T06:47:11;6.13;;;3.10;;
5149;SDS011;2593;52.466;13.436;2022-09-09T06:49:37;5.10;;;3.97;;
5149;SDS011;2593;52.466;13.436;2022-09-09T06:52:02;7.60;;;2.77;;
5149;SDS011;2593;52.466;13.436;2022-09-09T06:54:28;3.37;;;3.03;;
5149;SDS011;2593;52.466;13.436;2022-09-09T06:56:54;10.87;;;2.60;;
5149;SDS011;2593;52.466;13.436;2022-09-09T06:59:19;4.77;;;2.63;;
5149;SDS011;2593;52.466;13.436;2022-09-09T07:01:45;3.00;;;1.83;;
5149;SDS011;2593;52.466;13.436;2022-09-09T07:04:11;12.30;;;2.87;;
5149;SDS011;2593;52.466;13.436;2022-09-09T07:06:41;5.53;;;2.37;;
5149;SDS011;2593;52.466;13.436;2022-09-09T07:09:12;4.07;;;2.70;;
5149;SDS011;2593;52.466;13.436;2022-09-09T07:11:49;4.03;;;3.27;;
5149;SDS011;2593;52.466;13.436;2022-09-09T07:14:17;10.27;;;2.40;;
5149;SDS011;2593;52.466;13.436;2022-09-09T07:16:43;7.03;;;2.80;;
5149;SDS011;2593;52.466;13.436;2022-09-09T07:19:10;12.70;;;2.20;;
5149;SDS011;2593;52.466;13.436;2022-09-09T07:21:37;5.50;;;2.13;;
5149;SDS011;2593;52.466;13.436;2022-09-09T07:24:05;2.43;;;2.20;;
5149;SDS011;2593;52.466;13.436;2022-09-09T07:26:32;4.87;;;1.93;;
5149;SDS011;2593;52.466;13.436;2022-09-09T07:28:58;3.00;;;1.47;;
5149;SDS011;2593;52.466;13.436;2022-09-09T07:33:58;13.97;;;2.20;;
5149;SDS011;2593;52.466;13.436;2022-09-09T07:36:25;8.20;;;1.80;;
5149;SDS011;2593;52.466;13.436;2022-09-09T07:39:00;1.60;;;1.40;;
5149;SDS011;2593;52.466;13.436;2022-09-09T07:41:41;4.13;;;2.43;;
5149;SDS011;2593;52.466;13.436;2022-09-09T07:44:09;9.40;;;4.47;;
5149;SDS011;2593;52.466;13.436;2022-09-09T07:46:37;4.40;;;1.90;;
5149;SDS011;2593;52.466;13.436;2022-09-09T07:49:04;9.70;;;2.20;;
5149;SDS011;2593;52.466;13.436;2022-09-09T07:51:38;8.10;;;2.80;;
5149;SDS011;2593;52.466;13.436;2022-09-09T07:54:06;4.20;;;1.20;;
5149;SDS011;2593;52.466;13.436;2022-09-09T07:56:37;5.83;;;1.43;;
5149;SDS011;2593;52.466;13.436;2022-09-09T07:59:04;2.17;;;1.10;;
5149;SDS011;2593;52.466;13.436;2022-09-09T08:01:35;1.73;;;1.08;;
5149;SDS011;2593;52.466;13.436;2022-09-09T08:04:04;10.43;;;1.35;;
5149;SDS011;2593;52.466;13.436;2022-09-09T08:06:36;5.63;;;1.45;;
5149;SDS011;2593;52.466;13.436;2022-09-09T08:09:04;4.30;;;1.48;;
5149;SDS011;2593;52.466;13.436;2022-09-09T08:11:31;6.68;;;1.38;;
5149;SDS011;2593;52.466;13.436;2022-09-09T08:13:58;2.80;;;1.23;;
5149;SDS011;2593;52.466;13.436;2022-09-09T08:16:28;4.93;;;1.40;;
5149;SDS011;2593;52.466;13.436;2022-09-09T08:18:56;6.97;;;1.67;;
5149;SDS011;2593;52.466;13.436;2022-09-09T08:21:23;2.10;;;1.13;;
5149;SDS011;2593;52.466;13.436;2022-09-09T08:23:52;3.05;;;1.75;;
5149;SDS011;2593;52.466;13.436;2022-09-09T08:26:19;2.55;;;1.10;;
5149;SDS011;2593;52.466;13.436;2022-09-09T08:29:05;2.83;;;1.60;;
5149;SDS011;2593;52.466;13.436;2022-09-09T08:31:36;7.10;;;1.53;;
5149;SDS011;2593;52.466;13.436;2022-09-09T08:34:03;8.23;;;2.37;;
5149;SDS011;2593;52.466;13.436;2022-09-09T08:36:30;3.70;;;1.37;;
5149;SDS011;2593;52.466;13.436;2022-09-09T08:39:01;8.00;;;2.37;;
5149;SDS011;2593;52.466;13.436;2022-09-09T08:52:22;3.20;;;1.37;;
5149;SDS011;2593;52.466;13.436;2022-09-09T08:54:58;6.87;;;2.20;;
5149;SDS011;2593;52.466;13.436;2022-09-09T08:57:54;3.63;;;2.07;;
5149;SDS011;2593;52.466;13.436;2022-09-09T09:00:22;2.13;;;1.30;;
5149;SDS011;2593;52.466;13.436;2022-09-09T09:05:22;4.80;;;1.77;;
5149;SDS011;2593;52.466;13.436;2022-09-09T09:10:34;2.57;;;1.70;;
5149;SDS011;2593;52.466;13.436;2022-09-09T09:13:14;2.60;;;1.73;;
5149;SDS011;2593;52.466;13.436;2022-09-09T09:15:55;10.17;;;1.80;;
5149;SDS011;2593;52.466;13.436;2022-09-09T09:18:27;4.15;;;1.27;;
5149;SDS011;2593;52.466;13.436;2022-09-09T09:23:41;4.65;;;1.98;;
5149;SDS011;2593;52.466;13.436;2022-09-09T09:26:20;4.82;;;1.75;;
5149;SDS011;2593;52.466;13.436;2022-09-09T09:28:48;3.45;;;1.15;;
5149;SDS011;2593;52.466;13.436;2022-09-09T09:31:15;1.25;;;1.13;;
5149;SDS011;2593;52.466;13.436;2022-09-09T09:36:12;1.92;;;1.20;;
5149;SDS011;2593;52.466;13.436;2022-09-09T09:38:52;10.65;;;5.50;;
5149;SDS011;2593;52.466;13.436;2022-09-09T09:41:33;2.35;;;1.88;;
5149;SDS011;2593;52.466;13.436;2022-09-09T09:44:03;1.77;;;0.95;;
5149;SDS011;2593;52.466;13.436;2022-09-09T09:46:30;1.50;;;0.80;;
5149;SDS011;2593;52.466;13.436;2022-09-09T09:48:57;2.53;;;1.00;;
5149;SDS011;2593;52.466;13.436;2022-09-09T09:51:23;2.65;;;1.00;;
5149;SDS011;2593;52.466;13.436;2022-09-09T09:53:50;1.65;;;0.90;;
5149;SDS011;2593;52.466;13.436;2022-09-09T09:56:25;2.97;;;0.80;;
5149;SDS011;2593;52.466;13.436;2022-09-09T09:58:52;4.35;;;0.90;;
5149;SDS011;2593;52.466;13.436;2022-09-09T10:03:50;3.17;;;1.02;;
5149;SDS011;2593;52.466;13.436;2022-09-09T10:06:17;2.85;;;0.70;;
5149;SDS011;2593;52.466;13.436;2022-09-09T10:08:54;2.22;;;1.05;;
5149;SDS011;2593;52.466;13.436;2022-09-09T10:11:30;1.73;;;1.10;;
5149;SDS011;2593;52.466;13.436;2022-09-09T10:14:21;0.90;;;0.80;;
5149;SDS011;2593;52.466;13.436;2022-09-09T10:17:05;22.20;;;1.30;;
5149;SDS011;2593;52.466;13.436;2022-09-09T10:20:00;2.47;;;0.98;;
5149;SDS011;2593;52.466;13.436;2022-09-09T10:22:35;2.20;;;1.17;;
5149;SDS011;2593;52.466;13.436;2022-09-09T10:35:23;2.55;;;1.67;;
5149;SDS011;2593;52.466;13.436;2022-09-09T10:40:43;5.13;;;1.48;;
5149;SDS011;2593;52.466;13.436;2022-09-09T10:46:09;3.70;;;1.60;;
5149;SDS011;2593;52.466;13.436;2022-09-09T10:48:46;5.50;;;1.00;;
5149;SDS011;2593;52.466;13.436;2022-09-09T10:51:22;1.87;;;1.13;;
5149;SDS011;2593;52.466;13.436;2022-09-09T10:56:31;7.93;;;1.77;;
5149;SDS011;2593;52.466;13.436;2022-09-09T10:59:04;6.57;;;1.50;;
5149;SDS011;2593;52.466;13.436;2022-09-09T11:04:21;7.33;;;1.37;;
5149;SDS011;2593;52.466;13.436;2022-09-09T11:06:53;3.73;;;1.70;;
5149;SDS011;2593;52.466;13.436;2022-09-09T11:09:31;4.40;;;1.10;;
5149;SDS011;2593;52.466;13.436;2022-09-09T11:12:01;3.33;;;1.00;;
5149;SDS011;2593;52.466;13.436;2022-09-09T11:16:59;3.37;;;1.23;;
5149;SDS011;2593;52.466;13.436;2022-09-09T11:22:05;3.20;;;1.80;;
5149;SDS011;2593;52.466;13.436;2022-09-09T11:25:10;4.47;;;1.10;;
5149;SDS011;2593;52.466;13.436;2022-09-09T11:27:52;4.27;;;1.27;;
5149;SDS011;2593;52.466;13.436;2022-09-09T11:35:47;4.10;;;1.40;;
5149;SDS011;2593;52.466;13.436;2022-09-09T11:40:54;5.37;;;1.10;;
5149;SDS011;2593;52.466;13.436;2022-09-09T11:43:40;7.10;;;1.53;;
5149;SDS011;2593;52.466;13.436;2022-09-09T11:46:07;12.03;;;3.40;;
5149;SDS011;2593;52.466;13.436;2022-09-09T11:48:35;2.13;;;1.10;;
5149;SDS011;2593;52.466;13.436;2022-09-09T11:51:25;6.37;;;1.27;;
5149;SDS011;2593;52.466;13.436;2022-09-09T11:56:42;8.93;;;1.40;;
5149;SDS011;2593;52.466;13.436;2022-09-09T11:59:19;1.53;;;1.00;;
5149;SDS011;2593;52.466;13.436;2022-09-09T12:01:54;2.60;;;1.20;;
5149;SDS011;2593;52.466;13.436;2022-09-09T12:12:30;4.50;;;1.67;;
5149;SDS011;2593;52.466;13.436;2022-09-09T12:22:47;5.50;;;1.13;;
5149;SDS011;2593;52.466;13.436;2022-09-09T12:31:45;4.90;;;1.20;;
5149;SDS011;2593;52.466;13.436;2022-09-09T12:40:01;1.90;;;1.10;;
5149;SDS011;2593;52.466;13.436;2022-09-09T12:42:47;2.33;;;0.87;;
5149;SDS011;2593;52.466;13.436;2022-09-09T12:45:17;2.60;;;0.80;;
5149;SDS011;2593;52.466;13.436;2022-09-09T12:50:31;3.67;;;1.00;;
5149;SDS011;2593;52.466;13.436;2022-09-09T12:53:03;2.70;;;0.93;;
5149;SDS011;2593;52.466;13.436;2022-09-09T12:55:53;2.70;;;1.00;;
5149;SDS011;2593;52.466;13.436;2022-09-09T12:58:21;1.83;;;0.97;;
5149;SDS011;2593;52.466;13.436;2022-09-09T13:00:51;3.73;;;1.00;;
5149;SDS011;2593;52.466;13.436;2022-09-09T13:03:20;2.20;;;0.80;;
5149;SDS011;2593;52.466;13.436;2022-09-09T13:05:46;8.77;;;0.80;;
5149;SDS011;2593;52.466;13.436;2022-09-09T13:08:13;2.00;;;0.80;;
5149;SDS011;2593;52.466;13.436;2022-09-09T13:10:41;1.63;;;0.97;;
5149;SDS011;2593;52.466;13.436;2022-09-09T13:13:19;3.00;;;1.13;;
5149;SDS011;2593;52.466;13.436;2022-09-09T13:15:50;4.53;;;1.90;;
5149;SDS011;2593;52.466;13.436;2022-09-09T13:18:18;1.63;;;1.00;;
5149;SDS011;2593;52.466;13.436;2022-09-09T13:20:59;2.37;;;1.00;;
5149;SDS011;2593;52.466;13.436;2022-09-09T13:23:26;4.63;;;1.10;;
5149;SDS011;2593;52.466;13.436;2022-09-09T13:25:58;2.23;;;1.00;;
5149;SDS011;2593;52.466;13.436;2022-09-09T13:28:27;1.70;;;0.90;;
5149;SDS011;2593;52.466;13.436;2022-09-09T13:30:58;1.50;;;0.90;;
5149;SDS011;2593;52.466;13.436;2022-09-09T13:33:31;2.10;;;0.90;;
5149;SDS011;2593;52.466;13.436;2022-09-09T13:36:08;2.13;;;1.10;;
5149;SDS011;2593;52.466;13.436;2022-09-09T13:38:37;1.87;;;1.57;;
5149;SDS011;2593;52.466;13.436;2022-09-09T13:41:18;3.83;;;1.67;;
5149;SDS011;2593;52.466;13.436;2022-09-09T13:43:58;4.60;;;1.50;;
5149;SDS011;2593;52.466;13.436;2022-09-09T13:46:33;1.60;;;1.03;;
5149;SDS011;2593;52.466;13.436;2022-09-09T13:49:02;3.57;;;1.10;;
5149;SDS011;2593;52.466;13.436;2022-09-09T13:51:48;3.53;;;1.20;;
5149;SDS011;2593;52.466;13.436;2022-09-09T13:54:16;2.50;;;0.83;;
5149;SDS011;2593;52.466;13.436;2022-09-09T13:56:44;3.93;;;1.20;;
5149;SDS011;2593;52.466;13.436;2022-09-09T13:59:17;8.70;;;0.77;;
5149;SDS011;2593;52.466;13.436;2022-09-09T14:01:47;1.77;;;1.03;;
5149;SDS011;2593;52.466;13.436;2022-09-09T14:04:17;4.00;;;1.20;;
5149;SDS011;2593;52.466;13.436;2022-09-09T14:06:46;4.80;;;1.20;;
5149;SDS011;2593;52.466;13.436;2022-09-09T14:09:13;8.87;;;1.37;;
5149;SDS011;2593;52.466;13.436;2022-09-09T14:11:40;2.60;;;1.47;;
5149;SDS011;2593;52.466;13.436;2022-09-09T14:14:06;3.73;;;1.47;;
5149;SDS011;2593;52.466;13.436;2022-09-09T14:16:32;6.47;;;1.13;;
5149;SDS011;2593;52.466;13.436;2022-09-09T14:18:58;7.47;;;1.43;;
5149;SDS011;2593;52.466;13.436;2022-09-09T14:21:24;2.63;;;1.60;;
5149;SDS011;2593;52.466;13.436;2022-09-09T14:23:50;3.00;;;1.23;;
5149;SDS011;2593;52.466;13.436;2022-09-09T14:26:17;4.53;;;1.30;;
5149;SDS011;2593;52.466;13.436;2022-09-09T14:28:46;3.40;;;1.57;;
5149;SDS011;2593;52.466;13.436;2022-09-09T14:31:11;4.70;;;1.13;;
5149;SDS011;2593;52.466;13.436;2022-09-09T14:33:38;7.20;;;1.73;;
5149;SDS011;2593;52.466;13.436;2022-09-09T14:36:04;3.20;;;1.00;;
5149;SDS011;2593;52.466;13.436;2022-09-09T14:38:30;8.23;;;1.50;;
5149;SDS011;2593;52.466;13.436;2022-09-09T14:40:58;1.40;;;0.73;;
5149;SDS011;2593;52.466;13.436;2022-09-09T14:43:24;4.50;;;1.67;;
5149;SDS011;2593;52.466;13.436;2022-09-09T14:45:51;6.93;;;1.47;;
5149;SDS011;2593;52.466;13.436;2022-09-09T14:48:16;4.20;;;1.47;;
5149;SDS011;2593;52.466;13.436;2022-09-09T14:50:42;3.67;;;1.20;;
5149;SDS011;2593;52.466;13.436;2022-09-09T14:53:08;2.70;;;1.50;;
5149;SDS011;2593;52.466;13.436;2022-09-09T14:55:35;4.97;;;1.10;;
5149;SDS011;2593;52.466;13.436;2022-09-09T14:58:01;3.23;;;1.20;;
5149;SDS011;2593;52.466;13.436;2022-09-09T15:00:27;8.30;;;1.80;;
5149;SDS011;2593;52.466;13.436;2022-09-09T15:02:53;2.83;;;1.67;;
5149;SDS011;2593;52.466;13.436;2022-09-09T15:05:19;6.07;;;2.23;;
5149;SDS011;2593;52.466;13.436;2022-09-09T15:07:45;3.63;;;1.53;;
5149;SDS011;2593;52.466;13.436;2022-09-09T15:10:11;6.90;;;2.00;;
5149;SDS011;2593;52.466;13.436;2022-09-09T15:12:37;7.33;;;2.40;;
5149;SDS011;2593;52.466;13.436;2022-09-09T15:15:03;3.33;;;1.40;;
5149;SDS011;2593;52.466;13.436;2022-09-09T15:17:29;3.27;;;1.87;;
5149;SDS011;2593;52.466;13.436;2022-09-09T15:19:55;5.97;;;1.57;;
5149;SDS011;2593;52.466;13.436;2022-09-09T15:22:21;5.63;;;3.37;;
5149;SDS011;2593;52.466;13.436;2022-09-09T15:24:47;1.30;;;1.20;;
5149;SDS011;2593;52.466;13.436;2022-09-09T15:27:12;3.37;;;0.90;;
5149;SDS011;2593;52.466;13.436;2022-09-09T15:29:39;4.40;;;1.47;;
5149;SDS011;2593;52.466;13.436;2022-09-09T15:32:06;3.53;;;1.20;;
5149;SDS011;2593;52.466;13.436;2022-09-09T15:34:32;1.30;;;0.80;;
5149;SDS011;2593;52.466;13.436;2022-09-09T15:36:58;2.00;;;1.23;;
5149;SDS011;2593;52.466;13.436;2022-09-09T15:39:24;3.13;;;0.80;;
5149;SDS011;2593;52.466;13.436;2022-09-09T15:41:50;2.30;;;1.20;;
5149;SDS011;2593;52.466;13.436;2022-09-09T15:44:16;2.60;;;0.80;;
5149;SDS011;2593;52.466;13.436;2022-09-09T15:46:44;2.07;;;1.10;;
5149;SDS011;2593;52.466;13.436;2022-09-09T15:49:14;10.30;;;1.43;;
5149;SDS011;2593;52.466;13.436;2022-09-09T15:51:45;3.30;;;1.53;;
5149;SDS011;2593;52.466;13.436;2022-09-09T15:54:18;3.70;;;0.93;;
5149;SDS011;2593;52.466;13.436;2022-09-09T15:56:47;3.67;;;0.90;;
5149;SDS011;2593;52.466;13.436;2022-09-09T15:59:20;7.40;;;1.17;;
5149;SDS011;2593;52.466;13.436;2022-09-09T16:01:47;3.20;;;0.90;;
5149;SDS011;2593;52.466;13.436;2022-09-09T16:04:13;2.03;;;0.87;;
5149;SDS011;2593;52.466;13.436;2022-09-09T16:06:45;4.37;;;1.50;;
5149;SDS011;2593;52.466;13.436;2022-09-09T16:09:11;2.27;;;1.00;;
5149;SDS011;2593;52.466;13.436;2022-09-09T16:11:37;1.67;;;0.80;;
5149;SDS011;2593;52.466;13.436;2022-09-09T16:14:03;4.80;;;1.80;;
5149;SDS011;2593;52.466;13.436;2022-09-09T16:16:31;2.73;;;1.10;;
5149;SDS011;2593;52.466;13.436;2022-09-09T16:18:57;3.57;;;1.10;;
5149;SDS011;2593;52.466;13.436;2022-09-09T16:21:32;2.43;;;1.13;;
5149;SDS011;2593;52.466;13.436;2022-09-09T16:24:00;2.70;;;1.27;;
5149;SDS011;2593;52.466;13.436;2022-09-09T16:26:28;4.17;;;1.10;;
5149;SDS011;2593;52.466;13.436;2022-09-09T16:28:55;1.30;;;1.00;;
5149;SDS011;2593;52.466;13.436;2022-09-09T16:31:23;1.93;;;1.07;;
5149;SDS011;2593;52.466;13.436;2022-09-09T16:33:50;2.00;;;1.13;;
5149;SDS011;2593;52.466;13.436;2022-09-09T16:36:17;2.43;;;1.20;;
5149;SDS011;2593;52.466;13.436;2022-09-09T16:38:45;6.00;;;1.70;;
5149;SDS011;2593;52.466;13.436;2022-09-09T16:41:11;5.33;;;1.43;;
5149;SDS011;2593;52.466;13.436;2022-09-09T16:43:39;4.13;;;1.67;;
5149;SDS011;2593;52.466;13.436;2022-09-09T16:46:15;3.30;;;2.20;;
5149;SDS011;2593;52.466;13.436;2022-09-09T16:48:44;3.30;;;1.13;;
5149;SDS011;2593;52.466;13.436;2022-09-09T16:51:14;2.80;;;1.60;;
5149;SDS011;2593;52.466;13.436;2022-09-09T16:53:48;5.73;;;1.53;;
5149;SDS011;2593;52.466;13.436;2022-09-09T16:56:16;7.47;;;1.83;;
5149;SDS011;2593;52.466;13.436;2022-09-09T16:58:44;5.70;;;1.70;;
5149;SDS011;2593;52.466;13.436;2022-09-09T17:01:16;8.00;;;1.77;;
5149;SDS011;2593;52.466;13.436;2022-09-09T17:03:41;1.40;;;1.30;;
5149;SDS011;2593;52.466;13.436;2022-09-09T17:06:11;4.80;;;1.30;;
5149;SDS011;2593;52.466;13.436;2022-09-09T17:08:38;3.90;;;1.60;;
5149;SDS011;2593;52.466;13.436;2022-09-09T17:11:25;2.50;;;1.20;;
5149;SDS011;2593;52.466;13.436;2022-09-09T17:13:51;6.10;;;1.70;;
5149;SDS011;2593;52.466;13.436;2022-09-09T17:16:18;1.73;;;1.10;;
5149;SDS011;2593;52.466;13.436;2022-09-09T17:18:46;5.80;;;1.70;;
5149;SDS011;2593;52.466;13.436;2022-09-09T17:21:14;2.20;;;1.00;;
5149;SDS011;2593;52.466;13.436;2022-09-09T17:23:42;5.13;;;1.27;;
5149;SDS011;2593;52.466;13.436;2022-09-09T17:26:09;3.03;;;1.10;;
5149;SDS011;2593;52.466;13.436;2022-09-09T17:28:37;7.33;;;1.10;;
5149;SDS011;2593;52.466;13.436;2022-09-09T17:31:04;8.20;;;1.00;;
5149;SDS011;2593;52.466;13.436;2022-09-09T17:33:35;14.07;;;1.37;;
5149;SDS011;2593;52.466;13.436;2022-09-09T17:36:07;3.20;;;1.20;;
5149;SDS011;2593;52.466;13.436;2022-09-09T17:38:37;3.57;;;1.30;;
5149;SDS011;2593;52.466;13.436;2022-09-09T17:41:04;1.07;;;0.93;;